createdAt,value
2018-06-22T00:02:09.148Z,10.00
2018-06-22T00:04:37.529Z,10.10
2018-06-22T00:07:06.268Z,10.20
2018-06-22T00:09:34.634Z,10.10
2018-06-22T00:12:03.036Z,10.20
2018-06-22T00:14:31.484Z,10.20
2018-06-22T00:16:59.864Z,10.30
2018-06-22T00:19:28.255Z,10.40
2018-06-22T00:21:56.683Z,10.50
2018-06-22T00:24:25.056Z,10.50
2018-06-22T00:26:53.465Z,10.60
2018-06-22T00:29:21.830Z,10.70
2018-06-22T00:31:50.280Z,10.80
2018-06-22T00:34:18.647Z,10.90
2018-06-22T00:36:47.135Z,11.00
2018-06-22T00:39:15.496Z,11.00
2018-06-22T00:41:43.875Z,11.00
2018-06-22T00:44:12.340Z,11.00
2018-06-22T00:46:40.730Z,11.00
2018-06-22T00:49:09.116Z,11.00
2018-06-22T00:51:37.527Z,11.00
2018-06-22T00:54:14.114Z,11.00
2018-06-22T00:56:42.500Z,11.00
2018-06-22T00:59:11.507Z,11.00
2018-06-22T01:01:39.996Z,10.80
2018-06-22T01:04:08.774Z,10.60
2018-06-22T01:06:37.214Z,10.50
2018-06-22T01:09:08.289Z,10.40
2018-06-22T01:11:36.737Z,10.30
2018-06-22T01:14:05.524Z,10.20
2018-06-22T01:16:34.052Z,10.10
2018-06-22T01:19:02.503Z,10.10
2018-06-22T01:21:30.981Z,10.10
2018-06-22T01:23:59.408Z,10.10
2018-06-22T01:26:27.820Z,10.10
2018-06-22T01:30:00.649Z,10.00
2018-06-22T01:32:29.108Z,10.00
2018-06-22T01:34:57.516Z,10.00
2018-06-22T01:37:25.928Z,10.00
2018-06-22T01:39:54.295Z,9.90
2018-06-22T01:42:22.702Z,9.80
2018-06-22T01:44:51.192Z,9.80
2018-06-22T01:47:19.604Z,9.80
2018-06-22T01:49:48.184Z,9.70
2018-06-22T01:52:17.168Z,9.70
2018-06-22T01:54:46.115Z,9.70
2018-06-22T01:57:14.524Z,9.70
2018-06-22T01:59:42.948Z,9.70
2018-06-22T02:02:11.357Z,9.80
2018-06-22T02:04:39.769Z,9.80
2018-06-22T02:07:08.255Z,9.70
2018-06-22T02:09:36.657Z,9.70
2018-06-22T02:12:05.156Z,9.60
2018-06-22T02:14:33.624Z,9.50
2018-06-22T02:17:02.017Z,9.60
2018-06-22T02:19:30.452Z,9.60
2018-06-22T02:21:58.982Z,9.60
2018-06-22T02:24:27.544Z,9.60
2018-06-22T02:26:56.050Z,9.70
2018-06-22T02:29:24.497Z,9.70
2018-06-22T02:31:52.997Z,9.70
2018-06-22T02:34:21.459Z,9.60
2018-06-22T02:36:49.863Z,9.50
2018-06-22T02:39:18.285Z,9.40
2018-06-22T02:41:46.694Z,9.40
2018-06-22T02:44:15.173Z,9.40
2018-06-22T02:46:43.694Z,9.30
2018-06-22T02:49:12.110Z,9.30
2018-06-22T02:51:40.562Z,9.30
2018-06-22T02:54:09.082Z,9.30
2018-06-22T02:56:37.719Z,9.40
2018-06-22T02:59:06.282Z,9.40
2018-06-22T03:01:35.294Z,9.50
2018-06-22T03:04:03.712Z,9.70
2018-06-22T03:06:32.115Z,9.80
2018-06-22T03:09:00.620Z,9.80
2018-06-22T03:11:29.132Z,9.80
2018-06-22T03:13:57.479Z,9.90
2018-06-22T03:16:25.860Z,9.90
2018-06-22T03:18:54.614Z,10.00
2018-06-22T03:21:22.963Z,10.10
2018-06-22T03:23:51.343Z,10.10
2018-06-22T03:26:19.713Z,10.20
2018-06-22T03:28:48.096Z,10.20
2018-06-22T03:31:16.461Z,10.30
2018-06-22T03:33:45.295Z,10.40
2018-06-22T03:36:13.713Z,10.40
2018-06-22T03:38:42.061Z,10.50
2018-06-22T03:41:10.410Z,10.50
2018-06-22T03:43:38.834Z,10.50
2018-06-22T03:46:07.229Z,10.40
2018-06-22T03:48:35.729Z,10.30
2018-06-22T03:51:04.141Z,10.20
2018-06-22T03:53:32.605Z,10.10
2018-06-22T03:56:00.999Z,10.00
2018-06-22T03:58:29.376Z,9.90
2018-06-22T04:00:57.805Z,9.80
2018-06-22T04:03:26.213Z,9.80
2018-06-22T04:05:54.590Z,9.70
2018-06-22T04:08:22.953Z,9.70
2018-06-22T04:10:51.336Z,9.70
2018-06-22T04:13:19.713Z,9.70
2018-06-22T04:15:48.141Z,9.80
2018-06-22T04:18:16.556Z,9.80
2018-06-22T04:20:44.962Z,9.90
2018-06-22T04:23:13.647Z,10.10
2018-06-22T04:25:42.041Z,10.20
2018-06-22T04:28:10.509Z,10.20
2018-06-22T04:30:38.977Z,10.40
2018-06-22T04:33:07.496Z,10.60
2018-06-22T04:35:35.896Z,10.60
2018-06-22T04:38:04.296Z,10.70
2018-06-22T04:40:32.807Z,10.80
2018-06-22T04:43:01.209Z,10.80
2018-06-22T04:45:29.733Z,10.90
2018-06-22T04:47:58.173Z,11.10
2018-06-22T04:50:26.576Z,11.20
2018-06-22T04:52:54.981Z,11.20
2018-06-22T04:55:23.373Z,11.30
2018-06-22T04:57:51.765Z,11.40
2018-06-22T05:00:20.223Z,11.50
2018-06-22T05:02:48.657Z,11.50
2018-06-22T05:05:17.044Z,11.60
2018-06-22T05:07:45.473Z,11.60
2018-06-22T05:10:13.932Z,11.60
2018-06-22T05:12:42.367Z,11.60
2018-06-22T05:15:10.755Z,11.70
2018-06-22T05:17:39.225Z,11.70
2018-06-22T05:20:07.608Z,11.80
2018-06-22T05:22:36.051Z,11.80
2018-06-22T05:25:04.456Z,11.90
2018-06-22T05:27:32.892Z,11.70
2018-06-22T05:30:01.308Z,11.70
2018-06-22T05:32:29.737Z,11.80
2018-06-22T05:34:58.104Z,11.80
2018-06-22T05:37:26.505Z,12.00
2018-06-22T05:39:55.022Z,12.10
2018-06-22T05:42:23.488Z,12.10
2018-06-22T05:44:51.973Z,12.30
2018-06-22T05:47:20.438Z,12.40
2018-06-22T05:49:48.828Z,12.40
2018-06-22T05:52:17.249Z,12.40
2018-06-22T05:54:45.636Z,12.40
2018-06-22T05:57:14.121Z,12.40
2018-06-22T05:59:42.474Z,12.30
2018-06-22T06:02:10.861Z,12.40
2018-06-22T06:04:39.245Z,12.50
2018-06-22T06:07:07.668Z,12.70
2018-06-22T06:09:36.049Z,12.90
2018-06-22T06:12:04.492Z,13.00
2018-06-22T06:14:32.838Z,13.10
2018-06-22T06:17:01.230Z,13.20
2018-06-22T06:19:29.639Z,13.30
2018-06-22T06:21:58.232Z,13.40
2018-06-22T06:24:27.728Z,13.40
2018-06-22T06:26:56.244Z,13.40
2018-06-22T06:29:24.853Z,13.70
2018-06-22T06:34:21.434Z,14.20
2018-06-22T06:36:49.812Z,14.00
2018-06-22T06:39:18.308Z,14.00
2018-06-22T06:41:46.785Z,13.80
2018-06-22T06:44:15.696Z,13.80
2018-06-22T06:46:44.060Z,13.80
2018-06-22T06:49:12.440Z,14.00
2018-06-22T06:51:40.812Z,14.20
2018-06-22T06:54:09.238Z,14.30
2018-06-22T06:56:37.720Z,14.20
2018-06-22T06:59:06.224Z,14.30
2018-06-22T07:01:34.690Z,14.20
2018-06-22T07:04:03.092Z,13.90
2018-06-22T07:06:31.553Z,13.90
2018-06-22T07:09:00.010Z,13.90
2018-06-22T07:11:28.412Z,13.90
2018-06-22T07:13:56.824Z,14.00
2018-06-22T07:16:25.201Z,14.10
2018-06-22T07:18:53.616Z,14.30
2018-06-22T07:21:21.977Z,14.40
2018-06-22T07:23:50.596Z,14.60
2018-06-22T07:28:47.238Z,14.80
2018-06-22T07:31:15.619Z,14.90
2018-06-22T07:33:44.024Z,14.80
2018-06-22T07:36:12.440Z,14.80
2018-06-22T07:38:40.871Z,14.80
2018-06-22T07:41:09.415Z,15.00
2018-06-22T07:43:37.896Z,15.00
2018-06-22T07:46:06.328Z,14.90
2018-06-22T07:48:34.718Z,15.00
2018-06-22T07:51:03.365Z,14.90
2018-06-22T07:53:31.753Z,14.80
2018-06-22T07:56:00.308Z,14.70
2018-06-22T07:58:28.678Z,14.60
2018-06-22T08:00:57.077Z,14.90
2018-06-22T08:03:25.481Z,15.00
2018-06-22T08:08:22.383Z,15.20
2018-06-22T08:10:50.978Z,15.30
2018-06-22T08:13:19.540Z,15.20
2018-06-22T08:15:48.522Z,15.00
2018-06-22T08:18:17.122Z,14.70
2018-06-22T08:20:45.560Z,14.80
2018-06-22T08:23:14.028Z,14.90
2018-06-22T08:25:42.422Z,14.70
2018-06-22T08:28:10.997Z,14.70
2018-06-22T08:30:39.460Z,14.40
2018-06-22T08:33:07.827Z,14.60
2018-06-22T08:35:36.379Z,14.30
2018-06-22T08:38:05.325Z,14.40
2018-06-22T08:40:33.711Z,14.30
2018-06-22T08:43:02.437Z,14.50
2018-06-22T08:45:30.882Z,14.70
2018-06-22T08:47:59.264Z,14.90
2018-06-22T08:50:27.688Z,15.20
2018-06-22T08:52:56.178Z,15.10
2018-06-22T08:55:24.795Z,15.50
2018-06-22T09:00:21.411Z,16.10
2018-06-22T09:02:49.892Z,16.60
2018-06-22T09:05:18.616Z,16.40
2018-06-22T09:07:47.079Z,16.60
2018-06-22T09:10:15.557Z,16.70
2018-06-22T09:12:44.114Z,16.70
2018-06-22T09:15:12.517Z,16.60
2018-06-22T09:17:40.945Z,16.40
2018-06-22T09:20:09.414Z,16.40
2018-06-22T09:22:37.835Z,16.20
2018-06-22T09:25:06.485Z,16.10
2018-06-22T09:27:34.869Z,16.10
2018-06-22T09:30:03.432Z,15.90
2018-06-22T09:32:31.929Z,15.90
2018-06-22T09:35:00.369Z,15.70
2018-06-22T09:37:28.890Z,15.50
2018-06-22T09:42:25.587Z,15.30
2018-06-22T09:44:54.006Z,15.10
2018-06-22T09:47:22.434Z,15.30
2018-06-22T09:52:18.984Z,15.20
2018-06-22T09:54:47.546Z,15.10
2018-06-22T09:57:16.034Z,15.00
2018-06-22T09:59:44.457Z,15.10
2018-06-22T10:02:13.088Z,15.20
2018-06-22T10:04:41.755Z,15.40
2018-06-22T10:07:10.229Z,15.30
2018-06-22T10:09:38.794Z,15.70
2018-06-22T10:12:07.180Z,15.90
2018-06-22T10:14:35.580Z,16.00
2018-06-22T10:19:32.156Z,18.60
2018-06-22T10:22:00.739Z,18.80
2018-06-22T10:24:29.108Z,18.90
2018-06-22T10:26:57.856Z,18.80
2018-06-22T10:29:26.353Z,19.40
2018-06-22T10:31:55.146Z,19.80
2018-06-22T10:34:23.539Z,19.30
2018-06-22T10:36:51.972Z,18.60
2018-06-22T10:39:20.538Z,18.30
2018-06-22T10:41:48.889Z,18.00
2018-06-22T10:44:17.536Z,18.50
2018-06-22T10:46:46.211Z,18.30
2018-06-22T10:49:14.819Z,18.40
2018-06-22T10:51:43.273Z,19.10
2018-06-22T10:54:11.707Z,19.10
2018-06-22T10:56:40.088Z,20.30
2018-06-22T10:59:08.631Z,19.90
2018-06-22T11:01:37.132Z,20.80
2018-06-22T11:04:05.738Z,20.20
2018-06-22T11:06:34.156Z,20.30
2018-06-22T11:09:02.723Z,19.80
2018-06-22T11:11:31.094Z,18.50
2018-06-22T11:13:59.812Z,18.00
2018-06-22T11:16:28.093Z,17.10
2018-06-22T11:18:56.735Z,16.50
2018-06-22T11:21:25.404Z,16.40
2018-06-22T11:23:53.912Z,16.40
2018-06-22T11:26:22.323Z,16.70
2018-06-22T11:28:50.804Z,17.30
2018-06-22T11:31:19.729Z,18.30
2018-06-22T11:33:48.209Z,18.20
2018-06-22T11:36:16.827Z,18.30
2018-06-22T11:38:45.295Z,17.70
2018-06-22T11:41:13.833Z,17.70
2018-06-22T11:43:42.347Z,18.00
2018-06-22T11:46:11.072Z,18.80
2018-06-22T11:48:39.471Z,19.40
2018-06-22T11:51:08.459Z,18.80
2018-06-22T11:53:37.515Z,19.60
2018-06-22T11:56:06.422Z,18.80
2018-06-22T11:58:34.864Z,18.80
2018-06-22T12:01:03.552Z,18.70
2018-06-22T12:03:32.197Z,19.20
2018-06-22T12:06:00.625Z,19.40
2018-06-22T12:08:29.196Z,18.80
2018-06-22T12:10:57.949Z,18.80
2018-06-22T12:13:26.443Z,18.70
2018-06-22T12:15:55.071Z,18.90
2018-06-22T12:18:24.608Z,18.80
2018-06-22T12:20:53.089Z,18.60
2018-06-22T12:23:21.503Z,18.40
2018-06-22T12:25:50.451Z,17.50
2018-06-22T12:28:19.426Z,16.60
2018-06-22T12:30:48.536Z,15.70
2018-06-22T12:33:18.943Z,15.90
2018-06-22T12:35:47.479Z,16.10
2018-06-22T12:38:16.732Z,16.00
2018-06-22T12:40:47.268Z,16.00
2018-06-22T12:43:16.273Z,15.80
2018-06-22T12:45:46.399Z,16.00
2018-06-22T12:48:15.486Z,16.30
2018-06-22T12:50:44.449Z,16.40
2018-06-22T12:53:13.552Z,16.60
2018-06-22T12:55:42.356Z,17.00
2018-06-22T12:58:11.026Z,17.50
2018-06-22T13:00:39.952Z,17.40
2018-06-22T13:03:09.213Z,16.60
2018-06-22T13:05:37.931Z,16.90
2018-06-22T13:08:06.498Z,16.30
2018-06-22T13:10:35.021Z,15.90
2018-06-22T13:13:03.454Z,16.00
2018-06-22T13:15:32.017Z,16.00
2018-06-22T13:18:00.765Z,16.20
2018-06-22T13:20:29.508Z,16.60
2018-06-22T13:22:58.065Z,16.50
2018-06-22T13:25:26.414Z,16.80
2018-06-22T13:30:23.044Z,17.10
2018-06-22T13:32:51.453Z,17.30
2018-06-22T13:35:19.881Z,17.60
2018-06-22T13:37:48.393Z,17.90
2018-06-22T13:40:16.920Z,17.90
2018-06-22T13:42:45.388Z,17.50
2018-06-22T13:45:13.805Z,17.50
2018-06-22T13:47:42.216Z,18.10
2018-06-22T13:50:10.738Z,18.30
2018-06-22T13:52:39.232Z,18.60
2018-06-22T13:55:07.745Z,18.70
2018-06-22T13:57:36.242Z,18.90
2018-06-22T14:00:05.632Z,18.90
2018-06-22T14:02:34.021Z,18.50
2018-06-22T14:05:07.731Z,18.30
2018-06-22T14:07:36.268Z,17.70
2018-06-22T14:10:04.763Z,17.40
2018-06-22T14:12:33.201Z,17.80
2018-06-22T14:15:01.648Z,17.80
2018-06-22T14:17:30.287Z,17.60
2018-06-22T14:19:58.741Z,17.60
2018-06-22T14:22:27.185Z,17.70
2018-06-22T14:24:55.686Z,17.90
2018-06-22T14:27:24.313Z,17.70
2018-06-22T14:29:52.807Z,18.10
2018-06-22T14:32:21.244Z,18.10
2018-06-22T14:34:49.714Z,18.20
2018-06-22T14:37:18.165Z,18.30
2018-06-22T14:39:46.631Z,18.70
2018-06-22T14:42:15.141Z,18.20
2018-06-22T14:44:43.516Z,18.10
2018-06-22T14:47:12.070Z,18.30
2018-06-22T14:49:40.458Z,18.50
2018-06-22T14:52:08.865Z,18.90
2018-06-22T14:54:42.773Z,19.00
2018-06-22T14:57:16.519Z,18.90
2018-06-22T14:59:50.240Z,18.90
2018-06-22T15:02:24.126Z,18.60
2018-06-22T15:04:58.749Z,19.00
2018-06-22T15:07:32.564Z,19.20
2018-06-22T15:10:01.049Z,19.40
2018-06-22T15:12:29.488Z,19.70
2018-06-22T15:14:58.126Z,19.40
2018-06-22T15:17:26.656Z,19.10
2018-06-22T15:19:55.050Z,18.80
2018-06-22T15:22:23.536Z,18.10
2018-06-22T15:24:51.987Z,18.00
2018-06-22T15:27:20.445Z,18.10
2018-06-22T15:29:48.974Z,18.20
2018-06-22T15:32:17.543Z,18.10
2018-06-22T15:35:50.124Z,18.20
2018-06-22T15:40:57.530Z,18.30
2018-06-22T15:43:31.394Z,18.40
2018-06-22T15:46:05.212Z,18.10
2018-06-22T15:48:44.839Z,18.00
2018-06-22T15:51:18.521Z,17.70
2018-06-22T15:53:52.309Z,17.80
2018-06-22T15:56:20.772Z,17.70
2018-06-22T15:58:49.204Z,17.60
2018-06-22T16:01:17.671Z,17.60
2018-06-22T16:03:51.462Z,18.00
2018-06-22T16:06:20.264Z,18.30
2018-06-22T16:08:48.969Z,18.20
2018-06-22T16:11:17.487Z,18.00
2018-06-22T16:13:51.353Z,18.00
2018-06-22T16:16:25.012Z,17.80
2018-06-22T16:18:58.883Z,18.00
2018-06-22T16:21:32.740Z,18.30
2018-06-22T16:26:40.290Z,18.30
2018-06-22T16:29:08.965Z,18.10
2018-06-22T16:31:37.576Z,18.00
2018-06-22T16:34:05.980Z,18.00
2018-06-22T16:36:34.550Z,17.50
2018-06-22T16:39:03.591Z,17.50
2018-06-22T16:41:32.488Z,17.40
2018-06-22T16:44:01.016Z,17.50
2018-06-22T16:46:29.412Z,17.50
2018-06-22T16:48:57.984Z,17.50
2018-06-22T16:51:26.427Z,17.60
2018-06-22T16:53:54.985Z,18.20
2018-06-22T16:56:23.459Z,18.30
2018-06-22T16:58:51.940Z,18.20
2018-06-22T17:01:20.479Z,18.00
2018-06-22T17:03:48.945Z,17.60
2018-06-22T17:06:17.352Z,17.10
2018-06-22T17:08:51.231Z,16.90
2018-06-22T17:11:24.886Z,16.80
2018-06-22T17:13:58.793Z,16.60
2018-06-22T17:16:32.508Z,16.30
2018-06-22T17:19:00.946Z,16.20
2018-06-22T17:21:29.528Z,16.20
2018-06-22T17:23:58.296Z,16.10
2018-06-22T17:26:26.801Z,16.20
2018-06-22T17:28:55.781Z,16.10
2018-06-22T17:31:24.490Z,16.20
2018-06-22T17:33:53.316Z,16.10
2018-06-22T17:36:21.888Z,16.10
2018-06-22T17:38:50.297Z,16.20
2018-06-22T17:41:18.738Z,16.20
2018-06-22T17:43:47.212Z,16.20
2018-06-22T17:46:15.585Z,16.10
2018-06-22T17:48:44.248Z,16.20
2018-06-22T17:51:12.694Z,16.20
2018-06-22T17:53:41.195Z,16.40
2018-06-22T17:56:09.641Z,16.50
2018-06-22T18:01:11.718Z,16.70
2018-06-22T18:03:45.663Z,16.70
2018-06-22T18:06:19.459Z,16.50
2018-06-22T18:08:48.170Z,16.30
2018-06-22T18:11:21.864Z,16.10
2018-06-22T18:13:50.307Z,16.10
2018-06-22T18:16:18.757Z,15.90
2018-06-22T18:18:47.182Z,15.90
2018-06-22T18:21:15.645Z,15.90
2018-06-22T18:23:44.106Z,15.90
2018-06-22T18:26:12.575Z,16.00
2018-06-22T18:28:41.024Z,15.80
2018-06-22T18:31:09.433Z,15.70
2018-06-22T18:33:37.817Z,15.60
2018-06-22T18:36:06.406Z,15.60
2018-06-22T18:38:34.927Z,15.70
2018-06-22T18:41:03.350Z,15.60
2018-06-22T18:43:37.019Z,15.60
2018-06-22T18:46:05.494Z,15.50
2018-06-22T18:48:34.109Z,15.50
2018-06-22T18:56:09.976Z,15.50
2018-06-22T18:58:43.673Z,15.50
2018-06-22T19:01:17.607Z,15.30
2018-06-22T19:03:48.131Z,15.30
2018-06-22T19:06:16.715Z,15.20
2018-06-22T19:11:19.740Z,15.00
2018-06-22T19:13:48.147Z,14.90
2018-06-22T19:16:16.560Z,14.90
2018-06-22T19:18:44.984Z,14.80
2018-06-22T19:21:13.401Z,14.70
2018-06-22T19:23:41.798Z,14.60
2018-06-22T19:26:10.293Z,14.50
2018-06-22T19:28:38.641Z,14.50
2018-06-22T19:31:07.367Z,14.60
2018-06-22T19:33:35.720Z,14.50
2018-06-22T19:36:04.145Z,14.40
2018-06-22T19:38:32.560Z,14.30
2018-06-22T19:41:01.152Z,14.20
2018-06-22T19:43:35.343Z,14.10
2018-06-22T19:46:09.016Z,14.00
2018-06-22T19:48:42.815Z,13.90
2018-06-22T19:51:16.793Z,13.80
2018-06-22T19:53:48.962Z,13.70
2018-06-22T19:56:17.414Z,13.60
2018-06-22T19:58:45.788Z,13.60
2018-06-22T20:01:14.159Z,13.50
2018-06-22T20:03:42.523Z,13.50
2018-06-22T20:06:10.953Z,13.50
2018-06-22T20:08:39.351Z,13.40
2018-06-22T20:11:09.097Z,13.50
2018-06-22T20:13:37.531Z,13.50
2018-06-22T20:16:05.952Z,13.50
2018-06-22T20:18:34.356Z,13.60
2018-06-22T20:21:02.813Z,13.60
2018-06-22T20:23:31.216Z,13.70
2018-06-22T20:25:59.605Z,13.70
2018-06-22T20:28:28.140Z,13.80
2018-06-22T20:30:56.497Z,13.80
2018-06-22T20:33:24.965Z,13.80
2018-06-22T20:35:58.656Z,13.80
2018-06-22T20:38:32.408Z,13.80
2018-06-22T20:42:09.885Z,13.80
2018-06-22T20:44:43.597Z,13.80
2018-06-22T20:47:17.329Z,13.70
2018-06-22T20:50:54.866Z,13.70
2018-06-22T20:53:23.396Z,13.70
2018-06-22T20:55:52.022Z,13.60
2018-06-22T20:58:20.737Z,13.60
2018-06-22T21:00:49.185Z,13.50
2018-06-22T21:03:17.616Z,13.30
2018-06-22T21:05:46.000Z,13.30
2018-06-22T21:08:14.396Z,13.20
2018-06-22T21:10:42.799Z,13.10
2018-06-22T21:13:11.425Z,13.00
2018-06-22T21:15:39.770Z,12.90
2018-06-22T21:18:08.227Z,12.80
2018-06-22T21:20:36.631Z,12.70
2018-06-22T21:23:05.131Z,12.60
2018-06-22T21:25:33.508Z,12.60
2018-06-22T21:28:07.249Z,12.60
2018-06-22T21:30:40.896Z,12.40
2018-06-22T21:33:14.646Z,12.30
2018-06-22T21:35:48.346Z,12.30
2018-06-22T21:38:22.136Z,12.20
2018-06-22T21:40:50.546Z,12.20
2018-06-22T21:43:18.912Z,12.10
2018-06-22T21:45:47.303Z,12.10
2018-06-22T21:48:15.707Z,12.00
2018-06-22T21:50:44.112Z,11.90
2018-06-22T21:53:12.525Z,11.90
2018-06-22T21:55:40.927Z,11.80
2018-06-22T21:58:09.307Z,11.80
2018-06-22T22:00:37.991Z,11.70
2018-06-22T22:03:06.500Z,11.70
2018-06-22T22:05:34.875Z,11.70
2018-06-22T22:08:03.293Z,11.70
2018-06-22T22:10:37.073Z,11.70
2018-06-22T22:13:05.657Z,11.70
2018-06-22T22:15:34.067Z,11.70
2018-06-22T22:18:02.427Z,11.80
2018-06-22T22:20:30.804Z,11.80
2018-06-22T22:22:59.193Z,11.80
2018-06-22T22:25:27.657Z,11.80
2018-06-22T22:27:56.081Z,11.80
2018-06-22T22:30:24.472Z,11.70
2018-06-22T22:32:52.895Z,11.70
2018-06-22T22:35:21.321Z,11.70
2018-06-22T22:37:49.730Z,11.70
2018-06-22T22:40:18.152Z,11.70
2018-06-22T22:42:46.541Z,11.70
2018-06-22T22:45:14.939Z,11.60
2018-06-22T22:47:43.291Z,11.60
2018-06-22T22:50:11.697Z,11.60
2018-06-22T22:52:40.321Z,11.60
2018-06-22T22:55:08.704Z,11.50
2018-06-22T22:57:37.088Z,11.60
2018-06-22T23:00:05.477Z,11.60
2018-06-22T23:02:33.872Z,11.50
2018-06-22T23:05:02.240Z,11.50
2018-06-22T23:07:30.631Z,11.50
2018-06-22T23:09:59.164Z,11.40
2018-06-22T23:12:27.557Z,11.30
2018-06-22T23:14:56.014Z,11.20
2018-06-22T23:17:24.448Z,11.00
2018-06-22T23:19:52.820Z,10.90
2018-06-22T23:22:32.488Z,10.90
2018-06-22T23:25:00.928Z,10.80
2018-06-22T23:27:29.364Z,10.70
2018-06-22T23:29:57.744Z,10.70
2018-06-22T23:32:26.148Z,10.60
2018-06-22T23:34:54.525Z,10.50
2018-06-22T23:37:22.969Z,10.50
2018-06-22T23:39:51.344Z,10.40
2018-06-22T23:42:19.752Z,10.40
2018-06-22T23:44:48.121Z,10.40
2018-06-22T23:47:16.528Z,10.30
2018-06-22T23:49:44.973Z,10.30
2018-06-22T23:52:13.340Z,10.30
2018-06-22T23:54:41.742Z,10.40
2018-06-22T23:57:10.172Z,10.50
2018-06-22T23:59:38.577Z,10.50
